createdAt,value
2022-10-19T00:00:55.350Z,22.22
2022-10-19T00:04:06.296Z,21.75
2022-10-19T00:07:11.034Z,21.12
2022-10-19T00:10:16.344Z,20.48
2022-10-19T00:13:24.636Z,19.87
2022-10-19T00:16:32.017Z,17.75
2022-10-19T00:19:40.634Z,20.02
2022-10-19T00:22:46.260Z,20.17
2022-10-19T00:25:51.866Z,19.37
2022-10-19T00:28:59.449Z,21.25
2022-10-19T00:32:05.676Z,18.82
2022-10-19T00:35:13.204Z,20.57
2022-10-19T00:38:19.830Z,19.90
2022-10-19T00:41:26.288Z,20.80
2022-10-19T00:44:36.511Z,19.25
2022-10-19T00:47:43.180Z,20.08
2022-10-19T00:50:49.111Z,19.27
2022-10-19T00:53:54.845Z,18.95
2022-10-19T00:57:01.619Z,19.10
2022-10-19T01:00:07.941Z,19.73
2022-10-19T01:03:13.599Z,15.93
2022-10-19T01:06:19.535Z,16.27
2022-10-19T01:09:25.375Z,18.55
2022-10-19T01:12:41.845Z,17.27
2022-10-19T01:16:08.305Z,18.57
2022-10-19T01:19:17.946Z,17.70
2022-10-19T01:22:41.967Z,16.73
2022-10-19T01:26:05.518Z,16.20
2022-10-19T01:29:44.804Z,17.10
2022-10-19T01:33:10.705Z,18.92
2022-10-19T01:36:40.003Z,18.75
2022-10-19T01:40:11.199Z,18.30
2022-10-19T01:43:51.524Z,17.30
2022-10-19T01:47:05.454Z,19.87
2022-10-19T01:50:30.548Z,19.70
2022-10-19T01:53:37.033Z,19.70
2022-10-19T01:56:42.403Z,20.20
2022-10-19T01:59:47.753Z,19.57
2022-10-19T02:02:58.010Z,19.37
2022-10-19T02:06:03.342Z,19.60
2022-10-19T02:09:09.844Z,19.65
2022-10-19T02:12:18.676Z,18.87
2022-10-19T02:15:27.617Z,19.12
2022-10-19T02:18:36.176Z,18.85
2022-10-19T02:21:42.671Z,17.65
2022-10-19T02:24:48.519Z,18.02
2022-10-19T02:27:54.347Z,19.02
2022-10-19T02:31:00.146Z,18.12
2022-10-19T02:34:05.924Z,16.05
2022-10-19T02:37:13.031Z,19.27
2022-10-19T02:40:19.955Z,17.50
2022-10-19T02:43:29.759Z,19.15
2022-10-19T02:46:57.209Z,18.67
2022-10-19T02:50:02.687Z,17.80
2022-10-19T02:53:08.450Z,16.73
2022-10-19T02:56:14.498Z,18.00
2022-10-19T02:59:20.300Z,17.85
2022-10-19T03:02:25.641Z,17.02
2022-10-19T03:05:31.437Z,17.12
2022-10-19T03:08:37.314Z,18.95
2022-10-19T03:11:43.739Z,17.60
2022-10-19T03:14:50.299Z,17.07
2022-10-19T03:17:56.494Z,17.77
2022-10-19T03:21:01.995Z,15.50
2022-10-19T03:24:07.401Z,16.60
2022-10-19T03:27:13.441Z,16.85
2022-10-19T03:30:21.134Z,15.70
2022-10-19T03:33:26.542Z,16.48
2022-10-19T03:36:43.067Z,15.25
2022-10-19T03:39:47.915Z,16.67
2022-10-19T03:42:54.319Z,16.65
2022-10-19T03:46:01.301Z,16.10
2022-10-19T03:49:06.974Z,15.68
2022-10-19T03:52:13.228Z,16.50
2022-10-19T03:55:19.127Z,16.07
2022-10-19T03:58:24.542Z,15.43
2022-10-19T04:01:39.799Z,15.13
2022-10-19T04:04:44.984Z,15.68
2022-10-19T04:07:50.979Z,14.35
2022-10-19T04:10:56.734Z,12.70
2022-10-19T04:14:05.189Z,13.35
2022-10-19T04:17:11.327Z,13.22
2022-10-19T04:20:17.811Z,13.83
2022-10-19T04:23:24.074Z,13.65
2022-10-19T04:26:29.815Z,12.73
2022-10-19T04:29:30.849Z,13.35
2022-10-19T04:32:35.967Z,12.25
2022-10-19T04:35:42.450Z,12.70
2022-10-19T04:38:48.822Z,13.38
2022-10-19T04:41:47.722Z,13.08
2022-10-19T04:44:54.353Z,9.98
2022-10-19T04:48:01.459Z,13.13
2022-10-19T04:51:10.101Z,12.82
2022-10-19T04:54:17.013Z,14.40
2022-10-19T04:57:22.545Z,13.85
2022-10-19T05:00:29.630Z,14.50
2022-10-19T05:03:35.571Z,13.08
2022-10-19T05:06:35.461Z,14.10
2022-10-19T05:09:42.720Z,13.93
2022-10-19T05:12:49.959Z,14.30
2022-10-19T05:15:55.586Z,12.73
2022-10-19T05:19:08.388Z,11.93
2022-10-19T05:22:13.777Z,13.00
2022-10-19T05:25:21.457Z,10.53
2022-10-19T05:28:28.276Z,11.53
2022-10-19T05:31:27.735Z,12.37
2022-10-19T05:34:20.989Z,10.05
2022-10-19T05:37:26.120Z,11.65
2022-10-19T05:40:31.711Z,10.98
2022-10-19T05:43:29.405Z,11.65
2022-10-19T05:46:27.172Z,11.55
2022-10-19T05:49:34.837Z,9.48
2022-10-19T05:52:40.268Z,10.88
2022-10-19T05:55:42.403Z,11.57
2022-10-19T05:58:48.112Z,10.85
2022-10-19T06:01:53.927Z,11.73
2022-10-19T06:04:59.343Z,13.43
2022-10-19T06:07:59.799Z,11.80
2022-10-19T06:11:07.642Z,13.48
2022-10-19T06:14:14.412Z,14.00
2022-10-19T06:17:20.352Z,12.35
2022-10-19T06:20:26.850Z,11.20
2022-10-19T06:23:34.428Z,9.80
2022-10-19T06:26:40.201Z,9.93
2022-10-19T06:29:45.253Z,9.35
2022-10-19T06:32:50.465Z,9.58
2022-10-19T06:35:55.920Z,9.60
2022-10-19T06:39:09.972Z,9.60
2022-10-19T06:42:16.563Z,9.15
2022-10-19T06:45:30.206Z,8.25
2022-10-19T06:48:34.926Z,9.60
2022-10-19T06:51:41.877Z,9.13
2022-10-19T06:54:48.622Z,8.98
2022-10-19T06:57:54.373Z,8.43
2022-10-19T07:00:59.784Z,8.35
2022-10-19T07:04:06.826Z,7.03
2022-10-19T07:07:12.792Z,6.40
2022-10-19T07:10:18.621Z,7.00
2022-10-19T07:13:24.532Z,6.40
2022-10-19T07:16:31.311Z,6.95
2022-10-19T07:19:42.254Z,6.50
2022-10-19T07:22:48.020Z,6.85
2022-10-19T07:25:54.263Z,6.47
2022-10-19T07:29:00.895Z,6.37
2022-10-19T07:32:07.473Z,6.37
2022-10-19T07:35:13.349Z,5.47
2022-10-19T07:38:19.978Z,5.80
2022-10-19T07:41:29.814Z,6.50
2022-10-19T07:44:36.932Z,5.37
2022-10-19T07:47:43.396Z,4.72
2022-10-19T07:50:51.235Z,5.05
2022-10-19T07:53:57.312Z,4.67
2022-10-19T07:57:02.395Z,4.45
2022-10-19T08:00:08.420Z,4.65
2022-10-19T08:06:26.302Z,4.22
2022-10-19T08:09:52.166Z,3.92
2022-10-19T08:12:39.536Z,3.37
2022-10-19T08:15:47.285Z,3.15
2022-10-19T08:18:55.691Z,2.25
2022-10-19T08:22:02.165Z,2.27
2022-10-19T08:25:08.506Z,2.80
2022-10-19T08:28:17.121Z,2.30
2022-10-19T08:31:35.396Z,2.60
2022-10-19T08:34:41.910Z,2.98
2022-10-19T08:37:47.229Z,2.60
2022-10-19T08:40:53.298Z,2.45
2022-10-19T08:44:13.523Z,2.20
2022-10-19T08:48:00.996Z,2.33
2022-10-19T08:50:59.151Z,2.27
2022-10-19T08:54:12.306Z,1.80
2022-10-19T08:57:27.420Z,1.80
2022-10-19T09:03:57.848Z,1.52
2022-10-19T09:07:19.733Z,1.82
2022-10-19T09:10:49.586Z,1.85
2022-10-19T09:14:05.225Z,2.20
2022-10-19T09:17:07.323Z,2.10
2022-10-19T09:20:15.789Z,1.92
2022-10-19T09:23:46.289Z,1.40
2022-10-19T09:26:58.372Z,1.57
2022-10-19T09:30:12.816Z,2.65
2022-10-19T09:33:18.496Z,1.50
2022-10-19T09:36:39.218Z,1.20
2022-10-19T09:39:33.692Z,1.25
2022-10-19T09:42:46.650Z,1.42
2022-10-19T09:46:13.860Z,1.47
2022-10-19T09:49:15.922Z,1.60
2022-10-19T09:52:44.369Z,1.30
2022-10-19T09:55:57.714Z,1.27
2022-10-19T09:59:07.288Z,1.70
2022-10-19T10:02:31.733Z,1.57
2022-10-19T10:05:55.422Z,1.55
2022-10-19T10:09:08.113Z,1.40
2022-10-19T10:12:15.770Z,4.08
2022-10-19T10:15:22.615Z,2.60
2022-10-19T10:18:31.108Z,1.30
2022-10-19T10:21:42.930Z,1.87
2022-10-19T10:24:50.236Z,1.45
2022-10-19T10:27:55.991Z,2.33
2022-10-19T10:31:02.357Z,1.90
2022-10-19T10:34:28.402Z,1.60
2022-10-19T10:37:31.106Z,1.20
2022-10-19T10:40:43.157Z,1.27
2022-10-19T10:47:16.343Z,1.45
2022-10-19T10:50:24.155Z,1.45
2022-10-19T10:53:54.838Z,1.70
2022-10-19T10:56:48.447Z,1.42
2022-10-19T11:00:10.273Z,1.85
2022-10-19T11:03:23.158Z,1.90
2022-10-19T11:06:29.582Z,1.92
2022-10-19T11:09:54.934Z,1.90
2022-10-19T11:13:08.185Z,1.72
2022-10-19T11:16:33.483Z,2.10
2022-10-19T11:19:53.281Z,2.08
2022-10-19T11:23:19.024Z,2.27
2022-10-19T11:26:44.087Z,2.42
2022-10-19T11:30:20.867Z,3.65
2022-10-19T11:33:58.859Z,2.20
2022-10-19T11:37:12.415Z,2.02
2022-10-19T11:41:06.080Z,1.98
2022-10-19T11:43:58.973Z,1.95
2022-10-19T11:47:36.933Z,1.72
2022-10-19T11:51:20.881Z,2.02
2022-10-19T11:54:44.104Z,1.80
2022-10-19T11:57:57.021Z,2.55
2022-10-19T12:01:13.768Z,1.85
2022-10-19T12:04:50.813Z,1.85
2022-10-19T12:08:11.021Z,1.82
2022-10-19T12:14:38.368Z,1.70
2022-10-19T12:17:47.326Z,2.30
2022-10-19T12:21:03.775Z,1.82
2022-10-19T12:24:09.603Z,2.10
2022-10-19T12:27:14.795Z,2.15
2022-10-19T12:30:29.507Z,1.95
2022-10-19T12:33:36.562Z,2.40
2022-10-19T12:37:19.341Z,1.87
2022-10-19T12:40:43.958Z,2.33
2022-10-19T12:44:12.710Z,2.75
2022-10-19T12:47:28.435Z,2.40
2022-10-19T12:50:38.470Z,2.65
2022-10-19T12:53:51.434Z,2.72
2022-10-19T12:57:05.253Z,3.10
2022-10-19T13:00:12.126Z,2.87
2022-10-19T13:03:26.237Z,3.10
2022-10-19T13:06:41.791Z,3.30
2022-10-19T13:09:52.799Z,3.08
2022-10-19T13:13:00.603Z,3.50
2022-10-19T13:16:07.252Z,2.85
2022-10-19T13:19:32.476Z,3.00
2022-10-19T13:22:43.114Z,3.20
2022-10-19T13:25:53.121Z,3.95
2022-10-19T13:29:08.042Z,4.20
2022-10-19T13:32:34.964Z,3.50
2022-10-19T13:35:49.487Z,3.65
2022-10-19T13:39:17.255Z,4.12
2022-10-19T13:42:40.994Z,3.70
2022-10-19T13:45:47.772Z,4.90
2022-10-19T13:49:32.887Z,4.17
2022-10-19T13:52:45.877Z,3.98
2022-10-19T13:56:15.087Z,3.25
2022-10-19T14:00:02.098Z,3.12
2022-10-19T14:03:40.650Z,3.55
2022-10-19T14:06:58.885Z,4.28
2022-10-19T14:10:33.061Z,4.08
2022-10-19T14:13:36.421Z,4.40
2022-10-19T14:16:42.612Z,3.92
2022-10-19T14:19:59.040Z,4.00
2022-10-19T14:23:05.029Z,4.83
2022-10-19T14:26:12.993Z,4.95
2022-10-19T14:29:17.919Z,5.72
2022-10-19T14:32:25.459Z,5.15
2022-10-19T14:35:47.813Z,5.67
2022-10-19T14:38:55.326Z,4.55
2022-10-19T14:42:03.028Z,5.10
2022-10-19T14:45:08.896Z,5.03
2022-10-19T14:48:23.916Z,5.95
2022-10-19T14:52:05.662Z,4.78
2022-10-19T14:55:12.776Z,5.53
2022-10-19T14:58:18.910Z,5.90
2022-10-19T15:01:24.655Z,5.33
2022-10-19T15:04:36.199Z,4.87
2022-10-19T15:07:57.119Z,4.55
2022-10-19T15:11:02.885Z,6.12
2022-10-19T15:14:16.375Z,5.17
2022-10-19T15:17:31.884Z,5.55
2022-10-19T15:21:08.270Z,5.97
2022-10-19T15:24:06.128Z,5.95
2022-10-19T15:27:12.558Z,5.85
2022-10-19T15:30:35.062Z,6.10
2022-10-19T15:33:41.070Z,6.42
2022-10-19T15:36:47.721Z,6.33
2022-10-19T15:39:53.318Z,6.78
2022-10-19T15:42:59.315Z,7.50
2022-10-19T15:46:06.179Z,7.28
2022-10-19T15:49:18.344Z,6.53
2022-10-19T15:52:31.705Z,9.20
2022-10-19T15:55:36.962Z,19.02
2022-10-19T15:58:41.846Z,19.75
2022-10-19T16:01:51.115Z,21.62
2022-10-19T16:04:54.654Z,22.98
2022-10-19T16:07:59.564Z,22.73
2022-10-19T16:11:05.944Z,24.65
2022-10-19T16:14:12.205Z,24.95
2022-10-19T16:17:18.259Z,25.20
2022-10-19T16:20:26.760Z,25.10
2022-10-19T16:23:31.945Z,24.70
2022-10-19T16:26:39.611Z,25.92
2022-10-19T16:29:47.603Z,26.60
2022-10-19T16:32:54.506Z,24.63
2022-10-19T16:36:00.646Z,25.45
2022-10-19T16:39:05.958Z,23.50
2022-10-19T16:42:11.423Z,23.60
2022-10-19T16:45:11.029Z,23.47
2022-10-19T16:48:21.845Z,24.15
2022-10-19T16:51:40.992Z,24.50
2022-10-19T16:54:47.060Z,23.77
2022-10-19T16:57:53.676Z,22.87
2022-10-19T17:01:00.933Z,23.27
2022-10-19T17:04:07.307Z,24.15
2022-10-19T17:07:12.596Z,24.92
2022-10-19T17:10:19.452Z,24.07
2022-10-19T17:13:25.388Z,26.15
2022-10-19T17:16:30.974Z,26.30
2022-10-19T17:19:36.117Z,26.25
2022-10-19T17:22:43.146Z,27.58
2022-10-19T17:25:48.578Z,29.92
2022-10-19T17:28:56.394Z,28.30
2022-10-19T17:32:01.477Z,32.53
2022-10-19T17:35:09.915Z,29.37
2022-10-19T17:38:14.796Z,21.15
2022-10-19T17:41:30.152Z,17.82
2022-10-19T17:44:36.951Z,15.45
2022-10-19T17:47:43.188Z,15.10
2022-10-19T17:50:49.642Z,14.90
2022-10-19T17:53:54.677Z,13.40
2022-10-19T17:57:00.837Z,12.00
2022-10-19T18:00:09.562Z,14.03
2022-10-19T18:03:15.876Z,13.30
2022-10-19T18:06:26.917Z,10.58
2022-10-19T18:09:32.956Z,10.03
2022-10-19T18:12:39.331Z,11.43
2022-10-19T18:15:44.764Z,10.98
2022-10-19T18:18:52.671Z,11.95
2022-10-19T18:21:59.943Z,11.70
2022-10-19T18:25:06.061Z,13.68
2022-10-19T18:28:13.061Z,10.35
2022-10-19T18:31:37.597Z,12.82
2022-10-19T18:34:43.868Z,12.10
2022-10-19T18:37:43.091Z,15.20
2022-10-19T18:43:57.310Z,13.40
2022-10-19T18:47:03.799Z,14.28
2022-10-19T18:50:09.749Z,14.33
2022-10-19T18:53:16.437Z,15.45
2022-10-19T18:56:24.383Z,16.32
2022-10-19T18:59:30.173Z,18.32
2022-10-19T19:02:46.332Z,18.40
2022-10-19T19:05:44.226Z,16.15
2022-10-19T19:08:51.483Z,15.15
2022-10-19T19:12:00.465Z,12.90
2022-10-19T19:15:00.462Z,13.48
2022-10-19T19:18:09.158Z,13.93
2022-10-19T19:21:16.957Z,14.30
2022-10-19T19:24:22.703Z,15.90
2022-10-19T19:27:32.110Z,15.55
2022-10-19T19:30:37.037Z,15.13
2022-10-19T19:33:42.877Z,13.65
2022-10-19T19:36:50.579Z,18.15
2022-10-19T19:39:57.380Z,15.80
2022-10-19T19:43:03.763Z,16.32
2022-10-19T19:46:18.905Z,17.73
2022-10-19T19:49:28.022Z,14.43
2022-10-19T19:52:40.134Z,16.50
2022-10-19T19:55:42.529Z,17.73
2022-10-19T19:58:49.083Z,18.98
2022-10-19T20:01:56.298Z,18.77
2022-10-19T20:05:01.246Z,17.60
2022-10-19T20:08:07.481Z,19.30
2022-10-19T20:11:23.349Z,19.67
2022-10-19T20:14:30.464Z,21.15
2022-10-19T20:17:36.853Z,21.87
2022-10-19T20:20:42.704Z,26.00
2022-10-19T20:23:47.530Z,22.13
2022-10-19T20:26:53.410Z,22.75
2022-10-19T20:30:02.536Z,22.42
2022-10-19T20:33:09.032Z,20.40
2022-10-19T20:36:23.803Z,22.32
2022-10-19T20:39:29.995Z,23.55
2022-10-19T20:42:35.237Z,22.65
2022-10-19T20:45:43.494Z,24.92
2022-10-19T20:48:50.850Z,32.53
2022-10-19T20:51:57.470Z,38.48
2022-10-19T20:55:04.264Z,33.67
2022-10-19T20:58:10.868Z,33.63
2022-10-19T21:01:28.737Z,35.17
2022-10-19T21:04:34.638Z,34.65
2022-10-19T21:07:41.239Z,34.80
2022-10-19T21:10:47.814Z,30.65
2022-10-19T21:13:53.784Z,30.45
2022-10-19T21:17:00.748Z,30.17
2022-10-19T21:20:06.908Z,26.80
2022-10-19T21:23:13.826Z,29.48
2022-10-19T21:26:19.280Z,27.50
2022-10-19T21:29:25.735Z,25.88
2022-10-19T21:32:32.755Z,24.52
2022-10-19T21:35:39.192Z,21.30
2022-10-19T21:38:45.867Z,20.82
2022-10-19T21:41:52.463Z,21.02
2022-10-19T21:45:01.455Z,20.08
2022-10-19T21:48:08.583Z,18.73
2022-10-19T21:51:13.524Z,17.50
2022-10-19T21:54:28.657Z,17.12
2022-10-19T21:57:34.722Z,18.25
2022-10-19T22:00:40.832Z,17.30
2022-10-19T22:03:46.786Z,21.00
2022-10-19T22:06:52.138Z,24.40
2022-10-19T22:09:58.201Z,17.57
2022-10-19T22:13:04.139Z,20.57
2022-10-19T22:16:02.769Z,26.55
2022-10-19T22:19:02.532Z,29.45
2022-10-19T22:22:08.966Z,28.73
2022-10-19T22:25:14.624Z,24.23
2022-10-19T22:28:19.475Z,29.32
2022-10-19T22:31:25.529Z,26.42
2022-10-19T22:34:32.681Z,25.45
2022-10-19T22:37:38.325Z,23.57
2022-10-19T22:40:44.369Z,26.07
2022-10-19T22:43:50.204Z,24.90
2022-10-19T22:46:56.552Z,27.05
2022-10-19T22:50:02.385Z,22.60
2022-10-19T22:53:02.358Z,21.37
2022-10-19T22:55:56.955Z,22.40
2022-10-19T22:59:02.706Z,26.65
2022-10-19T23:02:09.001Z,24.20
2022-10-19T23:05:14.072Z,25.62
2022-10-19T23:08:19.606Z,22.40
2022-10-19T23:11:25.575Z,19.50
2022-10-19T23:14:32.008Z,21.77
2022-10-19T23:17:38.730Z,22.40
2022-10-19T23:20:45.068Z,21.70
2022-10-19T23:23:50.979Z,24.27
2022-10-19T23:26:56.820Z,28.20
2022-10-19T23:30:03.479Z,24.75
2022-10-19T23:33:08.806Z,23.70
2022-10-19T23:36:29.249Z,23.95
2022-10-19T23:39:35.876Z,21.90
2022-10-19T23:42:41.373Z,26.20
2022-10-19T23:45:46.886Z,25.45
2022-10-19T23:48:53.798Z,22.17
2022-10-19T23:52:01.126Z,25.27
2022-10-19T23:55:07.891Z,26.00
2022-10-19T23:58:13.374Z,26.23
